sensor_id;sensor_type;location;lat;lon;timestamp;pressure;altitude;pressure_sealevel;temperature;humidity
8286;BME280;4181;43.416;24.598;2023-04-27T00:01:48;99473.44;;;12.09;100.00
8286;BME280;4181;43.416;24.598;2023-04-27T00:04:13;99502.88;;;12.37;100.00
8286;BME280;4181;43.416;24.598;2023-04-27T00:06:41;99515.97;;;12.55;100.00
8286;BME280;4181;43.416;24.598;2023-04-27T00:09:06;99521.97;;;12.57;100.00
8286;BME280;4181;43.416;24.598;2023-04-27T00:11:32;99551.78;;;12.63;100.00
8286;BME280;4181;43.416;24.598;2023-04-27T00:13:58;99569.63;;;12.51;100.00
8286;BME280;4181;43.416;24.598;2023-04-27T00:16:23;99594.53;;;12.39;100.00
8286;BME280;4181;43.416;24.598;2023-04-27T00:18:49;99582.00;;;11.88;100.00
8286;BME280;4181;43.416;24.598;2023-04-27T00:21:14;99554.91;;;11.82;100.00
8286;BME280;4181;43.416;24.598;2023-04-27T00:23:40;99541.81;;;11.74;100.00
8286;BME280;4181;43.416;24.598;2023-04-27T00:26:05;99531.69;;;11.74;100.00
8286;BME280;4181;43.416;24.598;2023-04-27T00:28:31;99503.81;;;11.87;100.00
8286;BME280;4181;43.416;24.598;2023-04-27T00:30:57;99500.00;;;11.83;100.00
8286;BME280;4181;43.416;24.598;2023-04-27T00:33:23;99488.81;;;11.85;100.00
8286;BME280;4181;43.416;24.598;2023-04-27T00:35:48;99472.41;;;11.85;100.00
8286;BME280;4181;43.416;24.598;2023-04-27T00:38:14;99475.44;;;11.68;100.00
8286;BME280;4181;43.416;24.598;2023-04-27T00:40:39;99428.94;;;11.58;100.00
8286;BME280;4181;43.416;24.598;2023-04-27T00:43:05;99440.69;;;11.64;100.00
8286;BME280;4181;43.416;24.598;2023-04-27T00:45:30;99434.66;;;11.62;100.00
8286;BME280;4181;43.416;24.598;2023-04-27T00:47:56;99425.38;;;11.63;100.00
8286;BME280;4181;43.416;24.598;2023-04-27T00:50:28;99414.47;;;11.37;100.00
8286;BME280;4181;43.416;24.598;2023-04-27T00:52:55;99413.94;;;11.66;100.00
8286;BME280;4181;43.416;24.598;2023-04-27T00:55:22;99433.06;;;11.66;100.00
8286;BME280;4181;43.416;24.598;2023-04-27T00:57:47;99431.94;;;11.77;100.00
8286;BME280;4181;43.416;24.598;2023-04-27T01:00:13;99448.31;;;11.87;100.00
8286;BME280;4181;43.416;24.598;2023-04-27T01:02:39;99466.94;;;11.75;100.00
8286;BME280;4181;43.416;24.598;2023-04-27T01:05:04;99469.66;;;11.80;100.00
8286;BME280;4181;43.416;24.598;2023-04-27T01:07:32;99504.66;;;11.73;100.00
8286;BME280;4181;43.416;24.598;2023-04-27T01:09:57;99510.13;;;11.83;100.00
8286;BME280;4181;43.416;24.598;2023-04-27T01:12:23;99529.25;;;11.83;100.00
8286;BME280;4181;43.416;24.598;2023-04-27T01:14:48;99520.50;;;11.81;100.00
8286;BME280;4181;43.416;24.598;2023-04-27T01:17:14;99544.25;;;11.85;100.00
8286;BME280;4181;43.416;24.598;2023-04-27T01:19:40;99555.47;;;11.74;100.00
8286;BME280;4181;43.416;24.598;2023-04-27T01:22:05;99583.63;;;11.84;100.00
8286;BME280;4181;43.416;24.598;2023-04-27T01:24:31;99578.44;;;11.83;100.00
8286;BME280;4181;43.416;24.598;2023-04-27T01:26:56;99570.53;;;12.01;100.00
8286;BME280;4181;43.416;24.598;2023-04-27T01:29:22;99570.78;;;11.95;100.00
8286;BME280;4181;43.416;24.598;2023-04-27T01:31:48;99573.25;;;12.06;100.00
8286;BME280;4181;43.416;24.598;2023-04-27T01:34:13;99574.03;;;12.17;100.00
8286;BME280;4181;43.416;24.598;2023-04-27T01:36:39;99564.78;;;12.08;100.00
8286;BME280;4181;43.416;24.598;2023-04-27T01:39:04;99582.25;;;12.07;100.00
8286;BME280;4181;43.416;24.598;2023-04-27T01:41:34;99597.59;;;12.03;100.00
8286;BME280;4181;43.416;24.598;2023-04-27T01:44:00;99607.41;;;11.99;100.00
8286;BME280;4181;43.416;24.598;2023-04-27T01:46:25;99602.22;;;11.87;100.00
8286;BME280;4181;43.416;24.598;2023-04-27T01:48:51;99590.72;;;11.80;100.00
8286;BME280;4181;43.416;24.598;2023-04-27T01:51:16;99566.41;;;11.69;100.00
8286;BME280;4181;43.416;24.598;2023-04-27T01:53:42;99545.09;;;11.76;100.00
8286;BME280;4181;43.416;24.598;2023-04-27T01:56:07;99557.13;;;11.90;100.00
8286;BME280;4181;43.416;24.598;2023-04-27T01:58:34;99544.81;;;11.92;100.00
8286;BME280;4181;43.416;24.598;2023-04-27T02:00:59;99556.84;;;11.96;100.00
8286;BME280;4181;43.416;24.598;2023-04-27T02:03:25;99566.41;;;12.04;100.00
8286;BME280;4181;43.416;24.598;2023-04-27T02:05:50;99556.84;;;11.96;100.00
8286;BME280;4181;43.416;24.598;2023-04-27T02:08:16;99560.38;;;12.12;100.00
8286;BME280;4181;43.416;24.598;2023-04-27T02:10:41;99541.53;;;12.00;100.00
8286;BME280;4181;43.416;24.598;2023-04-27T02:13:07;99588.53;;;12.02;100.00
8286;BME280;4181;43.416;24.598;2023-04-27T02:15:34;99620.50;;;11.77;100.00
8286;BME280;4181;43.416;24.598;2023-04-27T02:18:00;99628.69;;;11.77;100.00
8286;BME280;4181;43.416;24.598;2023-04-27T02:20:28;99613.63;;;11.59;100.00
8286;BME280;4181;43.416;24.598;2023-04-27T02:22:53;99615.50;;;11.48;100.00
8286;BME280;4181;43.416;24.598;2023-04-27T02:25:19;99607.88;;;11.61;100.00
8286;BME280;4181;43.416;24.598;2023-04-27T02:27:45;99595.84;;;11.62;100.00
8286;BME280;4181;43.416;24.598;2023-04-27T02:30:11;99595.91;;;11.67;100.00
8286;BME280;4181;43.416;24.598;2023-04-27T02:32:36;99565.81;;;11.52;100.00
8286;BME280;4181;43.416;24.598;2023-04-27T02:35:02;99599.09;;;11.43;100.00
8286;BME280;4181;43.416;24.598;2023-04-27T02:37:29;99585.19;;;11.45;100.00
8286;BME280;4181;43.416;24.598;2023-04-27T02:39:54;99600.75;;;11.39;100.00
8286;BME280;4181;43.416;24.598;2023-04-27T02:42:20;99563.56;;;11.28;100.00
8286;BME280;4181;43.416;24.598;2023-04-27T02:44:45;99586.31;;;11.54;100.00
8286;BME280;4181;43.416;24.598;2023-04-27T02:47:11;99599.19;;;11.74;100.00
8286;BME280;4181;43.416;24.598;2023-04-27T02:49:37;99602.75;;;11.64;100.00
8286;BME280;4181;43.416;24.598;2023-04-27T02:52:04;99598.28;;;11.38;100.00
8286;BME280;4181;43.416;24.598;2023-04-27T02:54:30;99576.72;;;11.41;100.00
8286;BME280;4181;43.416;24.598;2023-04-27T02:56:55;99580.00;;;11.53;100.00
8286;BME280;4181;43.416;24.598;2023-04-27T02:59:21;99579.50;;;11.67;100.00
8286;BME280;4181;43.416;24.598;2023-04-27T03:01:46;99579.22;;;11.63;100.00
8286;BME280;4181;43.416;24.598;2023-04-27T03:04:12;99583.31;;;11.61;100.00
8286;BME280;4181;43.416;24.598;2023-04-27T03:06:40;99590.94;;;11.53;100.00
8286;BME280;4181;43.416;24.598;2023-04-27T03:09:06;99579.22;;;11.63;100.00
8286;BME280;4181;43.416;24.598;2023-04-27T03:11:32;99578.44;;;11.68;100.00
8286;BME280;4181;43.416;24.598;2023-04-27T03:13:57;99577.59;;;11.72;100.00
8286;BME280;4181;43.416;24.598;2023-04-27T03:16:23;99581.16;;;11.68;100.00
8286;BME280;4181;43.416;24.598;2023-04-27T03:18:48;99586.63;;;11.73;100.00
8286;BME280;4181;43.416;24.598;2023-04-27T03:21:14;99589.03;;;11.59;100.00
8286;BME280;4181;43.416;24.598;2023-04-27T03:23:41;99588.25;;;11.79;100.00
8286;BME280;4181;43.416;24.598;2023-04-27T03:28:32;99620.81;;;11.95;100.00
8286;BME280;4181;43.416;24.598;2023-04-27T03:30:58;99622.19;;;11.93;100.00
8286;BME280;4181;43.416;24.598;2023-04-27T03:33:24;99630.38;;;11.83;100.00
8286;BME280;4181;43.416;24.598;2023-04-27T03:35:57;99631.75;;;12.05;100.00
8286;BME280;4181;43.416;24.598;2023-04-27T03:38:24;99644.63;;;12.10;100.00
8286;BME280;4181;43.416;24.598;2023-04-27T03:40:50;99634.19;;;12.17;100.00
8286;BME280;4181;43.416;24.598;2023-04-27T03:43:16;99645.97;;;12.27;100.00
8286;BME280;4181;43.416;24.598;2023-04-27T03:45:42;99649.25;;;12.29;100.00
8286;BME280;4181;43.416;24.598;2023-04-27T03:48:07;99679.63;;;12.43;100.00
8286;BME280;4181;43.416;24.598;2023-04-27T03:50:33;99710.25;;;12.15;100.00
8286;BME280;4181;43.416;24.598;2023-04-27T03:52:58;99740.56;;;11.98;100.00
8286;BME280;4181;43.416;24.598;2023-04-27T03:55:23;99751.19;;;11.85;100.00
8286;BME280;4181;43.416;24.598;2023-04-27T03:57:50;99764.91;;;12.05;100.00
8286;BME280;4181;43.416;24.598;2023-04-27T04:00:16;99764.41;;;12.23;100.00
8286;BME280;4181;43.416;24.598;2023-04-27T04:02:43;99788.94;;;11.98;100.00
8286;BME280;4181;43.416;24.598;2023-04-27T04:05:09;99789.53;;;12.10;100.00
8286;BME280;4181;43.416;24.598;2023-04-27T04:07:35;99788.91;;;11.88;100.00
8286;BME280;4181;43.416;24.598;2023-04-27T04:10:00;99815.72;;;11.96;100.00
8286;BME280;4181;43.416;24.598;2023-04-27T04:12:26;99824.38;;;11.73;100.00
8286;BME280;4181;43.416;24.598;2023-04-27T04:14:51;99828.16;;;11.67;100.00
8286;BME280;4181;43.416;24.598;2023-04-27T04:17:17;99813.22;;;11.84;100.00
8286;BME280;4181;43.416;24.598;2023-04-27T04:19:42;99821.75;;;11.98;100.00
8286;BME280;4181;43.416;24.598;2023-04-27T04:22:08;99823.97;;;12.06;100.00
8286;BME280;4181;43.416;24.598;2023-04-27T04:24:34;99836.78;;;11.95;100.00
8286;BME280;4181;43.416;24.598;2023-04-27T04:27:00;99833.78;;;11.97;100.00
8286;BME280;4181;43.416;24.598;2023-04-27T04:29:26;99815.22;;;12.09;100.00
8286;BME280;4181;43.416;24.598;2023-04-27T04:31:54;99806.47;;;12.12;100.00
8286;BME280;4181;43.416;24.598;2023-04-27T04:34:20;99826.19;;;12.19;100.00
8286;BME280;4181;43.416;24.598;2023-04-27T04:36:46;99822.88;;;12.07;100.00
8286;BME280;4181;43.416;24.598;2023-04-27T04:39:16;99828.63;;;12.10;100.00
8286;BME280;4181;43.416;24.598;2023-04-27T04:41:41;99836.56;;;12.17;100.00
8286;BME280;4181;43.416;24.598;2023-04-27T04:44:07;99837.47;;;12.37;100.00
8286;BME280;4181;43.416;24.598;2023-04-27T04:46:34;99850.91;;;12.59;100.00
8286;BME280;4181;43.416;24.598;2023-04-27T04:49:01;99850.91;;;12.59;100.00
8286;BME280;4181;43.416;24.598;2023-04-27T04:51:27;99853.66;;;12.64;100.00
8286;BME280;4181;43.416;24.598;2023-04-27T04:53:52;99867.09;;;12.70;100.00
8286;BME280;4181;43.416;24.598;2023-04-27T04:56:17;99852.56;;;12.60;100.00
8286;BME280;4181;43.416;24.598;2023-04-27T04:58:43;99861.34;;;12.82;100.00
8286;BME280;4181;43.416;24.598;2023-04-27T05:01:08;99865.75;;;12.93;100.00
8286;BME280;4181;43.416;24.598;2023-04-27T05:03:34;99860.59;;;13.07;100.00
8286;BME280;4181;43.416;24.598;2023-04-27T05:05:59;99860.31;;;13.18;100.00
8286;BME280;4181;43.416;24.598;2023-04-27T05:08:25;99866.31;;;13.25;100.00
8286;BME280;4181;43.416;24.598;2023-04-27T05:10:51;99884.97;;;13.13;100.00
8286;BME280;4181;43.416;24.598;2023-04-27T05:13:17;99887.97;;;13.32;100.00
8286;BME280;4181;43.416;24.598;2023-04-27T05:15:42;99870.16;;;13.09;100.00
8286;BME280;4181;43.416;24.598;2023-04-27T05:18:08;99886.31;;;13.36;100.00
8286;BME280;4181;43.416;24.598;2023-04-27T05:20:34;99901.69;;;13.22;100.00
8286;BME280;4181;43.416;24.598;2023-04-27T05:23:00;99905.75;;;13.34;100.00
8286;BME280;4181;43.416;24.598;2023-04-27T05:25:29;99905.22;;;13.42;100.00
8286;BME280;4181;43.416;24.598;2023-04-27T05:27:55;99908.50;;;13.24;100.00
8286;BME280;4181;43.416;24.598;2023-04-27T05:30:20;99922.19;;;13.44;100.00
8286;BME280;4181;43.416;24.598;2023-04-27T05:32:46;99911.78;;;13.56;100.00
8286;BME280;4181;43.416;24.598;2023-04-27T05:35:11;99932.63;;;13.37;100.00
8286;BME280;4181;43.416;24.598;2023-04-27T05:37:37;99932.34;;;13.39;100.00
8286;BME280;4181;43.416;24.598;2023-04-27T05:40:02;99927.41;;;13.46;100.00
8286;BME280;4181;43.416;24.598;2023-04-27T05:42:30;99942.22;;;13.60;100.00
8286;BME280;4181;43.416;24.598;2023-04-27T05:44:55;99951.25;;;13.50;100.00
8286;BME280;4181;43.416;24.598;2023-04-27T05:47:21;99949.59;;;13.44;100.00
8286;BME280;4181;43.416;24.598;2023-04-27T05:49:50;99950.16;;;13.41;100.00
8286;BME280;4181;43.416;24.598;2023-04-27T05:52:17;99944.09;;;13.69;100.00
8286;BME280;4181;43.416;24.598;2023-04-27T05:54:46;99950.94;;;13.62;100.00
8286;BME280;4181;43.416;24.598;2023-04-27T05:57:12;99950.69;;;13.73;100.00
8286;BME280;4181;43.416;24.598;2023-04-27T05:59:38;99944.09;;;13.79;100.00
8286;BME280;4181;43.416;24.598;2023-04-27T06:02:03;99958.63;;;13.80;100.00
8286;BME280;4181;43.416;24.598;2023-04-27T06:04:29;99965.47;;;13.87;100.00
8286;BME280;4181;43.416;24.598;2023-04-27T06:06:56;99960.81;;;13.88;100.00
8286;BME280;4181;43.416;24.598;2023-04-27T06:09:22;99968.41;;;14.21;100.00
8286;BME280;4181;43.416;24.598;2023-04-27T06:11:47;99955.81;;;14.30;100.00
8286;BME280;4181;43.416;24.598;2023-04-27T06:14:13;99948.28;;;14.51;100.00
8286;BME280;4181;43.416;24.598;2023-04-27T06:16:38;99955.41;;;14.57;100.00
8286;BME280;4181;43.416;24.598;2023-04-27T06:19:05;99947.84;;;14.82;100.00
8286;BME280;4181;43.416;24.598;2023-04-27T06:21:39;99949.13;;;15.00;100.00
8286;BME280;4181;43.416;24.598;2023-04-27T06:24:05;99954.78;;;15.18;100.00
8286;BME280;4181;43.416;24.598;2023-04-27T06:26:31;99940.09;;;15.33;100.00
8286;BME280;4181;43.416;24.598;2023-04-27T06:29:14;99947.38;;;15.53;100.00
8286;BME280;4181;43.416;24.598;2023-04-27T06:31:40;99952.66;;;15.44;100.00
8286;BME280;4181;43.416;24.598;2023-04-27T06:34:05;99954.84;;;15.47;100.00
8286;BME280;4181;43.416;24.598;2023-04-27T06:36:31;99954.66;;;15.67;100.00
8286;BME280;4181;43.416;24.598;2023-04-27T06:38:56;99949.41;;;15.71;100.00
8286;BME280;4181;43.416;24.598;2023-04-27T06:41:23;99964.13;;;15.56;100.00
8286;BME280;4181;43.416;24.598;2023-04-27T06:43:49;99952.25;;;15.61;100.00
8286;BME280;4181;43.416;24.598;2023-04-27T06:46:15;99967.91;;;15.65;100.00
8286;BME280;4181;43.416;24.598;2023-04-27T06:48:40;99975.56;;;15.30;100.00
8286;BME280;4181;43.416;24.598;2023-04-27T06:51:06;99985.47;;;15.25;100.00
8286;BME280;4181;43.416;24.598;2023-04-27T06:53:31;99974.81;;;15.19;100.00
8286;BME280;4181;43.416;24.598;2023-04-27T06:55:56;99988.25;;;14.82;100.00
8286;BME280;4181;43.416;24.598;2023-04-27T06:58:22;99991.50;;;14.84;100.00
8286;BME280;4181;43.416;24.598;2023-04-27T07:00:47;99974.25;;;14.78;100.00
8286;BME280;4181;43.416;24.598;2023-04-27T07:03:13;99980.38;;;15.09;100.00
8286;BME280;4181;43.416;24.598;2023-04-27T07:05:39;99974.28;;;15.22;100.00
8286;BME280;4181;43.416;24.598;2023-04-27T07:08:05;99990.66;;;15.37;100.00
8286;BME280;4181;43.416;24.598;2023-04-27T07:10:30;99969.47;;;15.38;100.00
8286;BME280;4181;43.416;24.598;2023-04-27T07:12:56;99973.72;;;15.87;100.00
8286;BME280;4181;43.416;24.598;2023-04-27T07:15:22;99953.97;;;16.09;100.00
8286;BME280;4181;43.416;24.598;2023-04-27T07:17:47;99962.19;;;16.61;100.00
8286;BME280;4181;43.416;24.598;2023-04-27T07:20:12;99959.44;;;17.03;100.00
8286;BME280;4181;43.416;24.598;2023-04-27T07:22:38;99978.03;;;16.93;100.00
8286;BME280;4181;43.416;24.598;2023-04-27T07:25:05;99992.47;;;16.37;100.00
8286;BME280;4181;43.416;24.598;2023-04-27T07:27:31;99982.66;;;16.55;100.00
8286;BME280;4181;43.416;24.598;2023-04-27T07:29:57;99974.44;;;16.74;100.00
8286;BME280;4181;43.416;24.598;2023-04-27T07:32:23;99971.22;;;17.09;100.00
8286;BME280;4181;43.416;24.598;2023-04-27T07:34:54;99960.66;;;17.29;100.00
8286;BME280;4181;43.416;24.598;2023-04-27T07:37:21;99966.56;;;17.04;100.00
8286;BME280;4181;43.416;24.598;2023-04-27T07:39:48;99962.19;;;17.22;100.00
8286;BME280;4181;43.416;24.598;2023-04-27T07:42:14;99963.50;;;17.24;100.00
8286;BME280;4181;43.416;24.598;2023-04-27T07:44:40;99979.09;;;16.97;100.00
8286;BME280;4181;43.416;24.598;2023-04-27T07:47:06;99968.94;;;17.11;100.00
8286;BME280;4181;43.416;24.598;2023-04-27T07:49:32;99979.38;;;16.77;100.00
8286;BME280;4181;43.416;24.598;2023-04-27T07:51:59;99984.13;;;16.90;100.00
8286;BME280;4181;43.416;24.598;2023-04-27T07:54:24;99975.50;;;17.15;100.00
8286;BME280;4181;43.416;24.598;2023-04-27T07:56:50;99979.97;;;17.11;100.00
8286;BME280;4181;43.416;24.598;2023-04-27T07:59:15;99960.44;;;17.26;100.00
8286;BME280;4181;43.416;24.598;2023-04-27T08:01:41;99967.69;;;17.03;100.00
8286;BME280;4181;43.416;24.598;2023-04-27T08:04:07;99983.88;;;17.28;100.00
8286;BME280;4181;43.416;24.598;2023-04-27T08:06:32;99993.03;;;17.24;100.00
8286;BME280;4181;43.416;24.598;2023-04-27T08:08:58;99985.88;;;17.23;100.00
8286;BME280;4181;43.416;24.598;2023-04-27T08:11:37;100000.78;;;17.03;100.00
8286;BME280;4181;43.416;24.598;2023-04-27T08:14:07;99974.88;;;16.81;100.00
8286;BME280;4181;43.416;24.598;2023-04-27T08:16:39;99999.06;;;16.89;100.00
8286;BME280;4181;43.416;24.598;2023-04-27T08:19:05;100004.47;;;16.52;100.00
8286;BME280;4181;43.416;24.598;2023-04-27T08:21:30;100012.84;;;16.65;100.00
8286;BME280;4181;43.416;24.598;2023-04-27T08:23:57;100002.44;;;16.81;100.00
8286;BME280;4181;43.416;24.598;2023-04-27T08:26:22;100009.78;;;16.67;100.00
8286;BME280;4181;43.416;24.598;2023-04-27T08:28:48;99999.34;;;17.06;100.00
8286;BME280;4181;43.416;24.598;2023-04-27T08:31:14;99982.56;;;17.39;100.00
8286;BME280;4181;43.416;24.598;2023-04-27T08:33:39;99980.53;;;17.50;100.00
8286;BME280;4181;43.416;24.598;2023-04-27T08:36:06;99984.25;;;17.59;100.00
8286;BME280;4181;43.416;24.598;2023-04-27T08:38:33;99974.91;;;17.55;100.00
8286;BME280;4181;43.416;24.598;2023-04-27T08:40:59;99994.03;;;17.84;100.00
8286;BME280;4181;43.416;24.598;2023-04-27T08:43:24;99988.53;;;17.97;100.00
8286;BME280;4181;43.416;24.598;2023-04-27T08:45:50;99983.13;;;17.92;100.00
8286;BME280;4181;43.416;24.598;2023-04-27T08:48:17;99979.72;;;17.82;100.00
8286;BME280;4181;43.416;24.598;2023-04-27T08:50:43;99988.16;;;17.72;100.00
8286;BME280;4181;43.416;24.598;2023-04-27T08:53:18;99985.88;;;17.60;100.00
8286;BME280;4181;43.416;24.598;2023-04-27T08:55:45;99987.84;;;17.73;100.00
8286;BME280;4181;43.416;24.598;2023-04-27T08:58:11;99984.97;;;17.97;100.00
8286;BME280;4181;43.416;24.598;2023-04-27T09:00:41;99971.22;;;18.24;100.00
8286;BME280;4181;43.416;24.598;2023-04-27T09:03:17;99961.00;;;18.51;100.00
8286;BME280;4181;43.416;24.598;2023-04-27T09:05:47;99950.16;;;18.55;100.00
8286;BME280;4181;43.416;24.598;2023-04-27T09:08:13;99973.81;;;18.61;100.00
8286;BME280;4181;43.416;24.598;2023-04-27T09:10:43;99959.34;;;18.77;100.00
8286;BME280;4181;43.416;24.598;2023-04-27T09:13:09;99942.94;;;18.81;100.00
8286;BME280;4181;43.416;24.598;2023-04-27T09:15:43;99947.47;;;18.90;100.00
8286;BME280;4181;43.416;24.598;2023-04-27T09:18:20;99938.66;;;18.88;100.00
8286;BME280;4181;43.416;24.598;2023-04-27T09:23:31;99952.47;;;18.88;100.00
8286;BME280;4181;43.416;24.598;2023-04-27T09:25:59;99925.34;;;18.90;100.00
8286;BME280;4181;43.416;24.598;2023-04-27T09:28:25;99943.75;;;18.95;100.00
8286;BME280;4181;43.416;24.598;2023-04-27T09:30:57;99950.03;;;18.73;100.00
8286;BME280;4181;43.416;24.598;2023-04-27T09:33:23;99951.19;;;18.72;100.00
8286;BME280;4181;43.416;24.598;2023-04-27T09:35:49;99954.97;;;18.49;100.00
8286;BME280;4181;43.416;24.598;2023-04-27T09:38:17;99959.03;;;18.38;100.00
8286;BME280;4181;43.416;24.598;2023-04-27T09:40:42;99958.25;;;18.51;100.00
8286;BME280;4181;43.416;24.598;2023-04-27T09:43:08;99939.72;;;18.52;100.00
8286;BME280;4181;43.416;24.598;2023-04-27T09:45:34;99952.28;;;18.44;100.00
8286;BME280;4181;43.416;24.598;2023-04-27T09:48:03;99939.50;;;18.62;100.00
8286;BME280;4181;43.416;24.598;2023-04-27T09:50:30;99926.00;;;18.60;100.00
8286;BME280;4181;43.416;24.598;2023-04-27T09:52:58;99930.91;;;18.63;100.00
8286;BME280;4181;43.416;24.598;2023-04-27T09:55:27;99940.44;;;18.57;100.00
8286;BME280;4181;43.416;24.598;2023-04-27T10:03:29;99908.53;;;19.23;100.00
8286;BME280;4181;43.416;24.598;2023-04-27T10:09:02;99902.50;;;19.21;100.00
8286;BME280;4181;43.416;24.598;2023-04-27T10:11:41;99909.25;;;18.92;100.00
8286;BME280;4181;43.416;24.598;2023-04-27T10:14:09;99900.13;;;19.28;100.00
8286;BME280;4181;43.416;24.598;2023-04-27T10:16:45;99885.16;;;19.81;100.00
8286;BME280;4181;43.416;24.598;2023-04-27T10:19:12;99875.84;;;20.08;100.00
8286;BME280;4181;43.416;24.598;2023-04-27T10:21:56;99878.00;;;20.11;100.00
8286;BME280;4181;43.416;24.598;2023-04-27T10:27:05;99865.25;;;20.49;100.00
8286;BME280;4181;43.416;24.598;2023-04-27T10:29:37;99874.72;;;20.09;100.00
8286;BME280;4181;43.416;24.598;2023-04-27T10:32:21;99867.50;;;20.39;100.00
8286;BME280;4181;43.416;24.598;2023-04-27T10:34:51;99878.31;;;20.57;100.00
8286;BME280;4181;43.416;24.598;2023-04-27T10:37:38;99869.03;;;20.70;100.00
8286;BME280;4181;43.416;24.598;2023-04-27T10:40:07;99861.22;;;20.72;100.00
8286;BME280;4181;43.416;24.598;2023-04-27T10:42:34;99865.06;;;20.37;100.00
8286;BME280;4181;43.416;24.598;2023-04-27T10:45:00;99857.56;;;20.29;100.00
8286;BME280;4181;43.416;24.598;2023-04-27T10:47:36;99873.22;;;20.42;100.00
8286;BME280;4181;43.416;24.598;2023-04-27T10:50:03;99855.47;;;20.60;100.00
8286;BME280;4181;43.416;24.598;2023-04-27T10:52:29;99864.16;;;20.84;100.00
8286;BME280;4181;43.416;24.598;2023-04-27T10:54:54;99856.63;;;20.76;100.00
8286;BME280;4181;43.416;24.598;2023-04-27T10:57:20;99870.81;;;20.58;100.00
8286;BME280;4181;43.416;24.598;2023-04-27T10:59:52;99876.84;;;20.51;100.00
8286;BME280;4181;43.416;24.598;2023-04-27T11:02:26;99877.56;;;20.18;100.00
8286;BME280;4181;43.416;24.598;2023-04-27T11:04:54;99885.44;;;20.02;100.00
8286;BME280;4181;43.416;24.598;2023-04-27T11:07:26;99896.66;;;19.66;100.00
8286;BME280;4181;43.416;24.598;2023-04-27T11:09:53;99892.72;;;19.37;100.00
8286;BME280;4181;43.416;24.598;2023-04-27T11:12:20;99903.50;;;19.25;100.00
8286;BME280;4181;43.416;24.598;2023-04-27T11:14:45;99914.16;;;18.96;100.00
8286;BME280;4181;43.416;24.598;2023-04-27T11:17:12;99912.50;;;18.94;100.00
8286;BME280;4181;43.416;24.598;2023-04-27T11:19:46;99925.06;;;18.78;100.00
8286;BME280;4181;43.416;24.598;2023-04-27T11:22:13;99908.56;;;18.87;100.00
8286;BME280;4181;43.416;24.598;2023-04-27T11:24:51;99913.66;;;18.93;100.00
8286;BME280;4181;43.416;24.598;2023-04-27T11:27:17;99907.91;;;18.90;100.00
8286;BME280;4181;43.416;24.598;2023-04-27T11:29:44;99907.41;;;18.88;100.00
8286;BME280;4181;43.416;24.598;2023-04-27T11:32:22;99901.28;;;19.13;100.00
8286;BME280;4181;43.416;24.598;2023-04-27T11:34:52;99898.38;;;19.32;100.00
8286;BME280;4181;43.416;24.598;2023-04-27T11:37:25;99887.47;;;19.79;100.00
8286;BME280;4181;43.416;24.598;2023-04-27T11:39:51;99884.78;;;20.05;100.00
8286;BME280;4181;43.416;24.598;2023-04-27T11:42:19;99890.25;;;19.88;100.00
8286;BME280;4181;43.416;24.598;2023-04-27T11:44:56;99887.34;;;19.93;100.00
8286;BME280;4181;43.416;24.598;2023-04-27T11:47:23;99884.91;;;19.91;100.00
8286;BME280;4181;43.416;24.598;2023-04-27T11:49:50;99881.94;;;19.88;100.00
8286;BME280;4181;43.416;24.598;2023-04-27T11:52:19;99871.41;;;20.29;100.00
8286;BME280;4181;43.416;24.598;2023-04-27T11:54:49;99865.88;;;20.38;100.00
8286;BME280;4181;43.416;24.598;2023-04-27T11:57:15;99867.47;;;20.30;100.00
8286;BME280;4181;43.416;24.598;2023-04-27T11:59:41;99869.78;;;19.97;100.00
8286;BME280;4181;43.416;24.598;2023-04-27T12:02:07;99881.53;;;20.03;100.00
8286;BME280;4181;43.416;24.598;2023-04-27T12:04:33;99883.13;;;19.95;100.00
8286;BME280;4181;43.416;24.598;2023-04-27T12:07:00;99893.88;;;19.66;100.00
8286;BME280;4181;43.416;24.598;2023-04-27T12:09:26;99901.66;;;19.34;100.00
8286;BME280;4181;43.416;24.598;2023-04-27T12:11:53;99913.03;;;19.32;100.00
8286;BME280;4181;43.416;24.598;2023-04-27T12:14:19;99900.72;;;19.25;100.00
8286;BME280;4181;43.416;24.598;2023-04-27T12:16:44;99907.22;;;19.20;100.00
8286;BME280;4181;43.416;24.598;2023-04-27T12:19:10;99912.75;;;19.20;100.00
8286;BME280;4181;43.416;24.598;2023-04-27T12:21:35;99896.13;;;19.34;100.00
8286;BME280;4181;43.416;24.598;2023-04-27T12:24:01;99902.50;;;19.43;100.00
8286;BME280;4181;43.416;24.598;2023-04-27T12:26:26;99897.47;;;19.45;100.00
8286;BME280;4181;43.416;24.598;2023-04-27T12:28:53;99898.63;;;19.44;100.00
8286;BME280;4181;43.416;24.598;2023-04-27T12:31:18;99905.38;;;19.29;100.00
8286;BME280;4181;43.416;24.598;2023-04-27T12:33:48;99918.72;;;19.14;100.00
8286;BME280;4181;43.416;24.598;2023-04-27T12:36:16;99901.28;;;19.13;100.00
8286;BME280;4181;43.416;24.598;2023-04-27T12:38:41;99900.78;;;19.11;100.00
8286;BME280;4181;43.416;24.598;2023-04-27T12:41:07;99899.59;;;19.04;100.00
8286;BME280;4181;43.416;24.598;2023-04-27T12:43:32;99904.41;;;18.98;100.00
8286;BME280;4181;43.416;24.598;2023-04-27T12:46:00;99909.25;;;18.92;100.00
8286;BME280;4181;43.416;24.598;2023-04-27T12:48:26;99916.94;;;18.96;100.00
8286;BME280;4181;43.416;24.598;2023-04-27T12:50:51;99914.78;;;18.92;100.00
8286;BME280;4181;43.416;24.598;2023-04-27T12:53:17;99918.59;;;18.83;100.00
8286;BME280;4181;43.416;24.598;2023-04-27T12:55:42;99934.28;;;18.60;100.00
8286;BME280;4181;43.416;24.598;2023-04-27T12:58:08;99950.38;;;18.45;100.00
8286;BME280;4181;43.416;24.598;2023-04-27T13:00:33;99941.34;;;18.12;100.00
8286;BME280;4181;43.416;24.598;2023-04-27T13:03:02;99950.81;;;18.06;100.00
8286;BME280;4181;43.416;24.598;2023-04-27T13:05:29;99968.09;;;17.98;100.00
8286;BME280;4181;43.416;24.598;2023-04-27T13:07:54;99972.78;;;17.98;100.00
8286;BME280;4181;43.416;24.598;2023-04-27T13:10:20;99975.53;;;17.84;100.00
8286;BME280;4181;43.416;24.598;2023-04-27T13:12:46;99968.41;;;17.97;100.00
8286;BME280;4181;43.416;24.598;2023-04-27T13:15:11;99957.84;;;17.85;100.00